Time;durP1;ratioP1;P1;durP2;ratioP2;P2;SDS_P1;SDS_P2;PMS_P1;PMS_P2;Temp;Humidity;BMP_temperature;BMP_pressure;BME280_temperature;BME280_humidity;BME280_pressure;Samples;Min_cycle;Max_cycle;Signal;HPM_P1;HPM_P2
2023/02/07 00:01:15;;;;;;;0.00;0.00;;;;;;;8.23;60.95;102982.25;7371461;19;20018;-59
2023/02/07 00:03:41;;;;;;;0.00;0.00;;;;;;;8.27;60.76;102985.81;7372628;19;20558;-59
2023/02/07 00:06:15;;;;;;;0.00;0.00;;;;;;;8.28;59.97;102983.25;7373098;19;20058;-59
2023/02/07 00:08:42;;;;;;;0.10;0.10;;;;;;;8.33;60.48;102991.16;7367641;19;20385;-58
2023/02/07 00:11:16;;;;;;;0.00;0.00;;;;;;;8.37;60.68;102982.63;7373157;19;20874;-59
2023/02/07 00:13:43;;;;;;;0.00;0.00;;;;;;;8.38;61.48;102986.97;7371990;19;20014;-59
2023/02/07 00:16:09;;;;;;;0.10;0.10;;;;;;;8.32;60.52;102984.19;7367366;19;20069;-58
2023/02/07 00:18:35;;;;;;;0.00;0.00;;;;;;;8.06;60.44;102923.75;7364903;19;20800;-58
2023/02/07 00:21:07;;;;;;;0.00;0.00;;;;;;;8.48;61.35;102991.53;7362489;19;20086;-59
2023/02/07 00:23:34;;;;;;;0.00;0.00;;;;;;;8.51;61.89;102996.78;7363170;19;20015;-59
2023/02/07 00:25:59;;;;;;;0.00;0.00;;;;;;;8.55;61.53;103009.06;7370375;19;20042;-58
2023/02/07 00:28:25;;;;;;;0.00;0.00;;;;;;;8.55;61.36;102992.56;7363577;19;20018;-59
2023/02/07 00:30:50;;;;;;;0.00;0.00;;;;;;;8.62;62.03;102988.34;7368827;19;20017;-58
2023/02/07 00:33:16;;;;;;;0.00;0.00;;;;;;;8.64;61.34;102991.88;7367592;19;21364;-59
2023/02/07 00:35:42;;;;;;;0.00;0.00;;;;;;;8.50;61.90;102969.00;7368143;19;20082;-59
2023/02/07 00:38:07;;;;;;;0.00;0.00;;;;;;;8.71;62.07;102994.63;7356083;19;20461;-59
2023/02/07 00:40:33;;;;;;;0.00;0.00;;;;;;;8.71;61.94;102983.34;7358964;19;20017;-58
2023/02/07 00:42:58;;;;;;;0.10;0.10;;;;;;;8.74;62.25;102978.22;7358710;19;20018;-57
2023/02/07 00:45:23;;;;;;;0.00;0.00;;;;;;;8.76;61.51;102980.00;7364784;19;20012;-59
2023/02/07 00:47:49;;;;;;;0.00;0.00;;;;;;;8.79;61.99;102984.41;7362173;19;20055;-58
2023/02/07 00:50:14;;;;;;;0.00;0.00;;;;;;;8.84;62.33;102994.06;7360063;19;20573;-58
2023/02/07 00:52:40;;;;;;;0.00;0.00;;;;;;;8.81;61.71;102985.28;7360355;19;20011;-59
2023/02/07 00:55:06;;;;;;;0.00;0.00;;;;;;;8.74;62.61;102966.06;7359176;19;20014;-59
2023/02/07 00:57:31;;;;;;;0.00;0.00;;;;;;;8.89;62.04;102988.06;7357878;19;20027;-59
2023/02/07 00:59:56;;;;;;;0.10;0.10;;;;;;;8.88;62.08;102976.78;7358799;19;20019;-59
2023/02/07 01:02:22;;;;;;;0.00;0.00;;;;;;;8.80;61.80;102962.69;7363049;19;20007;-59
2023/02/07 01:04:47;;;;;;;0.10;0.10;;;;;;;8.91;62.31;102976.81;7363972;19;20742;-58
2023/02/07 01:07:13;;;;;;;0.00;0.00;;;;;;;8.94;62.59;102976.03;7362265;19;20015;-57
2023/02/07 01:09:38;;;;;;;0.00;0.00;;;;;;;8.94;61.97;102976.91;7360644;19;20011;-59
2023/02/07 01:12:04;;;;;;;0.10;0.10;;;;;;;8.95;62.64;102976.03;7360304;19;20582;-58
2023/02/07 01:14:29;;;;;;;0.00;0.00;;;;;;;8.95;62.77;102978.66;7365132;19;20034;-58
2023/02/07 01:16:55;;;;;;;0.05;0.05;;;;;;;8.89;62.04;102967.22;7361814;19;20021;-58
2023/02/07 01:19:20;;;;;;;0.00;0.00;;;;;;;8.96;62.45;102985.63;7362624;19;20019;-58
2023/02/07 01:21:46;;;;;;;0.00;0.00;;;;;;;8.94;61.58;102971.69;7360725;19;20039;-58
2023/02/07 01:24:11;;;;;;;0.08;0.08;;;;;;;8.99;63.08;102984.81;7362361;19;20351;-58
2023/02/07 01:26:38;;;;;;;0.10;0.10;;;;;;;8.81;62.96;102954.03;7360311;19;20981;-59
2023/02/07 01:29:04;;;;;;;0.00;0.00;;;;;;;8.99;62.70;102990.91;7362529;19;20582;-58
2023/02/07 01:31:29;;;;;;;0.05;0.05;;;;;;;8.99;62.92;102993.50;7359885;19;21442;-59
2023/02/07 01:33:57;;;;;;;0.03;0.03;;;;;;;9.00;62.15;102987.44;7364042;19;20038;-58
2023/02/07 01:36:24;;;;;;;0.00;0.00;;;;;;;8.99;62.66;102987.41;7360122;19;20810;-59
2023/02/07 01:38:52;;;;;;;0.00;0.00;;;;;;;9.01;62.76;102983.97;7364317;19;20011;-58
2023/02/07 01:41:19;;;;;;;0.10;0.10;;;;;;;8.96;62.80;102980.41;7361976;19;20011;-58
2023/02/07 01:43:56;;;;;;;0.08;0.08;;;;;;;9.03;62.65;102977.09;7362964;19;20022;-58
2023/02/07 01:46:21;;;;;;;0.00;0.00;;;;;;;8.99;62.91;102980.47;7360032;19;20010;-59
2023/02/07 01:48:47;;;;;;;0.10;0.10;;;;;;;9.02;63.03;102980.56;7360779;19;20023;-57
2023/02/07 01:51:13;;;;;;;0.00;0.00;;;;;;;9.02;62.99;102983.16;7359872;19;20010;-58
2023/02/07 01:53:39;;;;;;;0.10;0.10;;;;;;;8.98;63.18;102973.50;7362062;19;20014;-59
2023/02/07 01:56:08;;;;;;;0.08;0.08;;;;;;;9.00;63.27;102978.75;7360580;19;20824;-58
2023/02/07 01:58:34;;;;;;;0.10;0.10;;;;;;;8.89;63.37;102962.03;7360597;19;20014;-58
2023/02/07 02:01:06;;;;;;;0.05;0.05;;;;;;;9.03;63.05;102992.72;7361600;19;20049;-59
2023/02/07 02:03:38;;;;;;;0.10;0.10;;;;;;;9.04;63.60;103002.31;7359867;19;20832;-57
2023/02/07 02:06:03;;;;;;;0.00;0.00;;;;;;;9.00;63.40;102989.19;7361042;19;20011;-59
2023/02/07 02:08:29;;;;;;;0.00;0.00;;;;;;;8.89;62.85;102975.06;7359498;19;20006;-59
2023/02/07 02:11:20;;;;;;;0.10;0.10;;;;;;;9.05;62.48;102996.22;7357939;19;20015;-58
2023/02/07 02:13:58;;;;;;;0.00;0.00;;;;;;;8.84;63.25;102970.63;7357182;19;20057;-59
2023/02/07 02:17:08;;;;;;;0.00;0.00;;;;;;;9.04;62.20;102997.09;7358676;19;20010;-58
2023/02/07 02:20:25;;;;;;;0.00;0.00;;;;;;;9.04;62.05;102999.69;7259225;19;2004593;-59
2023/02/07 02:23:24;;;;;;;0.10;0.10;;;;;;;9.02;62.40;103001.41;7255974;19;2004321;-58
2023/02/07 02:26:25;;;;;;;0.00;0.00;;;;;;;9.01;62.74;103007.44;7259351;19;2004667;-59
2023/02/07 02:29:09;;;;;;;0.00;0.00;;;;;;;8.98;63.34;103001.31;7256665;19;2004699;-59
2023/02/07 02:32:22;;;;;;;0.00;0.00;;;;;;;8.99;61.73;103003.94;7359347;19;20035;-57
2023/02/07 02:34:53;;;;;;;0.00;0.00;;;;;;;8.96;62.77;103000.38;7257010;19;2004343;-59
2023/02/07 02:37:29;;;;;;;0.00;0.00;;;;;;;8.96;63.23;103011.69;7359931;19;20463;-59
2023/02/07 02:40:09;;;;;;;0.00;0.00;;;;;;;8.95;62.30;102994.28;7358850;19;20018;-59
2023/02/07 02:43:18;;;;;;;0.00;0.00;;;;;;;8.96;62.36;103001.25;7360314;19;20013;-58
2023/02/07 02:45:52;;;;;;;0.00;0.00;;;;;;;8.88;63.00;102987.19;7260019;19;2004349;-58
2023/02/07 02:48:18;;;;;;;0.00;0.00;;;;;;;8.86;63.52;102988.88;7359395;19;20002;-58
2023/02/07 02:50:46;;;;;;;0.00;0.00;;;;;;;8.93;63.84;102995.13;7356297;19;20131;-58
2023/02/07 02:53:13;;;;;;;0.10;0.10;;;;;;;8.87;63.62;102985.44;7360674;19;20006;-57
2023/02/07 02:55:59;;;;;;;0.00;0.00;;;;;;;8.91;63.69;102986.38;7358654;19;20010;-58
2023/02/07 02:58:52;;;;;;;0.00;0.00;;;;;;;8.94;63.03;102992.53;7348684;19;20010;-57
2023/02/07 03:01:27;;;;;;;0.08;0.08;;;;;;;8.79;63.28;102966.16;7255132;19;2004273;-58
2023/02/07 03:04:20;;;;;;;0.00;0.00;;;;;;;8.81;62.34;102961.84;7359302;19;20768;-58
2023/02/07 03:07:13;;;;;;;0.00;0.00;;;;;;;8.96;61.97;102990.81;7255140;19;2004275;-59
2023/02/07 03:09:54;;;;;;;0.10;0.10;;;;;;;8.95;63.03;102978.66;7257846;19;2004800;-57
2023/02/07 03:12:53;;;;;;;0.00;0.00;;;;;;;8.60;62.23;102922.34;7351067;19;20018;-59
2023/02/07 03:15:46;;;;;;;0.00;0.00;;;;;;;8.97;63.03;102981.28;7251636;19;2004226;-59
2023/02/07 03:18:25;;;;;;;0.00;0.00;;;;;;;8.81;63.84;102949.69;7254069;19;2004514;-59
2023/02/07 03:20:57;;;;;;;0.00;0.00;;;;;;;8.94;63.56;102976.91;7351954;19;21353;-59
2023/02/07 03:23:23;;;;;;;0.00;0.00;;;;;;;8.88;64.36;102982.00;7359271;19;20753;-58
2023/02/07 03:25:51;;;;;;;0.00;0.00;;;;;;;8.88;63.86;102979.38;7356725;19;20019;-59
2023/02/07 03:28:18;;;;;;;0.00;0.00;;;;;;;8.95;64.07;102983.88;7348717;19;20779;-57
2023/02/07 03:30:47;;;;;;;;;;;;;;;8.98;62.95;102998.69;7356210;19;20002;-59
2023/02/07 03:33:14;;;;;;;0.05;0.05;;;;;;;8.96;63.52;102988.22;7360328;19;19915;-59
2023/02/07 03:35:56;;;;;;;0.00;0.00;;;;;;;8.94;63.70;102982.13;7347115;19;20015;-59
2023/02/07 03:38:23;;;;;;;0.00;0.00;;;;;;;8.97;64.39;102992.63;7357817;19;20030;-58
2023/02/07 03:41:00;;;;;;;0.00;0.00;;;;;;;8.99;63.71;103001.31;7352295;19;20022;-58
2023/02/07 03:43:32;;;;;;;0.10;0.10;;;;;;;9.00;64.41;102997.88;7356691;19;20667;-59
2023/02/07 03:45:58;;;;;;;0.10;0.10;;;;;;;8.93;64.54;102995.13;7349217;19;20019;-59
2023/02/07 03:48:24;;;;;;;0.10;0.10;;;;;;;8.90;64.17;102982.00;7356921;19;20014;-58
2023/02/07 03:50:50;;;;;;;0.10;0.10;;;;;;;9.00;64.68;102995.25;7355622;19;20801;-58
2023/02/07 03:53:16;;;;;;;0.00;0.00;;;;;;;8.81;64.82;102956.63;7358753;19;20425;-59
2023/02/07 03:55:42;;;;;;;0.00;0.00;;;;;;;8.92;64.74;102983.81;7355255;19;20568;-58
2023/02/07 03:58:08;;;;;;;0.10;0.10;;;;;;;9.01;64.00;102990.94;7355891;19;20042;-59
2023/02/07 04:00:34;;;;;;;0.10;0.10;;;;;;;9.03;64.95;102992.72;7355624;19;20471;-59
2023/02/07 04:03:00;;;;;;;0.00;0.00;;;;;;;8.93;64.85;102979.50;7346961;19;20060;-58
2023/02/07 04:05:25;;;;;;;0.00;0.00;;;;;;;9.02;64.66;102985.78;7350573;19;20776;-59
2023/02/07 04:07:51;;;;;;;0.00;0.00;;;;;;;8.93;64.26;102969.94;7352447;19;20018;-59
2023/02/07 04:10:17;;;;;;;0.10;0.10;;;;;;;8.92;64.59;102973.41;7356891;19;20089;-58
2023/02/07 04:12:42;;;;;;;0.00;0.00;;;;;;;9.06;64.81;102991.91;7357135;19;20446;-59
2023/02/07 04:15:08;;;;;;;0.00;0.00;;;;;;;8.90;64.69;102962.03;7361710;19;20014;-58
2023/02/07 04:17:34;;;;;;;0.00;0.00;;;;;;;8.96;64.63;102972.59;7363547;19;20727;-59
2023/02/07 04:20:00;;;;;;;0.00;0.00;;;;;;;9.05;64.88;102980.59;7363774;19;20102;-58
2023/02/07 04:22:26;;;;;;;0.00;0.00;;;;;;;9.02;65.03;102971.81;7346465;19;20048;-58
2023/02/07 04:24:51;;;;;;;0.10;0.10;;;;;;;9.04;64.40;102973.63;7361805;19;20015;-58
2023/02/07 04:27:17;;;;;;;0.10;0.10;;;;;;;9.02;64.72;102970.13;7364765;19;20014;-59
2023/02/07 04:29:42;;;;;;;0.03;0.03;;;;;;;8.98;64.30;102967.44;7363577;19;20034;-57
2023/02/07 04:32:08;;;;;;;0.00;0.00;;;;;;;9.03;63.75;102982.31;7363745;19;20007;-59
2023/02/07 04:34:33;;;;;;;0.00;0.00;;;;;;;8.94;64.68;102971.69;7364560;19;20452;-59
2023/02/07 04:36:58;;;;;;;0.00;0.00;;;;;;;9.00;64.32;102983.97;7361799;19;20006;-57
2023/02/07 04:39:24;;;;;;;0.00;0.00;;;;;;;8.98;64.81;102989.16;7364995;19;20717;-58
2023/02/07 04:41:49;;;;;;;0.00;0.00;;;;;;;8.97;64.39;102992.63;7360148;19;20032;-59
2023/02/07 04:44:15;;;;;;;0.00;0.00;;;;;;;8.74;64.86;102952.16;7360488;19;20086;-59
2023/02/07 04:46:40;;;;;;;0.00;0.00;;;;;;;8.91;64.65;102986.38;7361891;19;20006;-58
2023/02/07 04:49:05;;;;;;;0.00;0.00;;;;;;;8.92;64.28;102982.91;7362086;19;20034;-58
2023/02/07 04:51:31;;;;;;;0.00;0.00;;;;;;;8.79;64.73;102971.38;7361865;19;20010;-58
2023/02/07 04:53:57;;;;;;;0.00;0.00;;;;;;;8.86;64.58;102983.66;7363246;19;20013;-58
2023/02/07 04:56:23;;;;;;;0.05;0.05;;;;;;;8.88;64.87;102997.63;7360958;19;20706;-59
2023/02/07 04:58:49;;;;;;;0.10;0.10;;;;;;;8.76;64.34;102977.38;7363034;19;20010;-59
2023/02/07 05:01:14;;;;;;;0.10;0.10;;;;;;;8.74;65.13;102978.22;7363028;19;20073;-59
2023/02/07 05:03:40;;;;;;;0.10;0.10;;;;;;;8.86;64.73;102994.09;7361477;19;20486;-57
2023/02/07 05:06:05;;;;;;;0.10;0.10;;;;;;;8.79;65.02;102982.66;7365193;19;20012;-59
2023/02/07 05:08:31;;;;;;;0.00;0.00;;;;;;;8.73;64.84;102974.72;7360462;19;20026;-58
2023/02/07 05:10:56;;;;;;;0.00;0.00;;;;;;;8.82;64.82;102993.16;7363619;19;20014;-58
2023/02/07 05:13:23;;;;;;;0.00;0.00;;;;;;;8.72;64.80;102977.31;7360304;19;20010;-59
2023/02/07 05:15:48;;;;;;;0.08;0.08;;;;;;;8.86;65.26;103004.50;7362881;19;20132;-59
2023/02/07 05:18:13;;;;;;;0.10;0.10;;;;;;;8.86;65.11;102996.69;7362430;19;20018;-59
2023/02/07 05:20:39;;;;;;;0.10;0.10;;;;;;;8.82;65.13;102994.91;7361645;19;20031;-59
2023/02/07 05:23:04;;;;;;;0.10;0.10;;;;;;;8.84;65.04;102990.59;7360698;19;20010;-59
2023/02/07 05:25:30;;;;;;;0.00;0.00;;;;;;;8.88;65.35;103000.22;7363189;19;20017;-58
2023/02/07 05:27:55;;;;;;;0.10;0.10;;;;;;;8.88;64.64;103002.84;7359236;19;20031;-59
2023/02/07 05:30:21;;;;;;;0.10;0.10;;;;;;;8.92;65.16;103002.06;7363216;19;20589;-59
2023/02/07 05:33:05;;;;;;;0.10;0.10;;;;;;;8.93;65.49;103006.41;7362094;19;20022;-60
2023/02/07 05:35:34;;;;;;;0.00;0.00;;;;;;;8.97;65.00;103000.44;7358963;19;20010;-59
2023/02/07 05:38:00;;;;;;;0.00;0.00;;;;;;;8.97;65.14;102997.81;7361620;19;20010;-59
2023/02/07 05:40:26;;;;;;;0.10;0.10;;;;;;;8.90;65.54;102982.88;7362370;19;20014;-59
2023/02/07 05:42:52;;;;;;;0.00;0.00;;;;;;;9.00;65.29;103000.47;7360148;19;20048;-59
2023/02/07 05:45:18;;;;;;;0.00;0.00;;;;;;;8.99;64.66;102992.63;7363026;19;20026;-57
2023/02/07 05:47:44;;;;;;;0.00;0.00;;;;;;;8.94;65.07;102984.72;7360852;19;20011;-58
2023/02/07 05:50:09;;;;;;;0.10;0.10;;;;;;;9.06;65.40;103000.59;7360659;19;22003;-59
2023/02/07 05:52:35;;;;;;;0.00;0.00;;;;;;;8.98;65.24;102993.50;7361590;19;20835;-59
2023/02/07 05:55:00;;;;;;;0.00;0.00;;;;;;;9.09;64.45;103005.88;7362467;19;20066;-59
2023/02/07 05:57:26;;;;;;;0.05;0.05;;;;;;;9.01;65.19;102989.19;7359248;19;20089;-59
2023/02/07 05:59:51;;;;;;;0.10;0.10;;;;;;;8.93;65.36;102969.94;7360564;19;20490;-59
2023/02/07 06:02:16;;;;;;;0.00;0.00;;;;;;;8.98;65.31;102983.06;7360570;19;20536;-59
2023/02/07 06:04:42;;;;;;;0.00;0.00;;;;;;;9.18;64.45;103007.81;7358358;19;20014;-59
2023/02/07 06:07:07;;;;;;;0.00;0.00;;;;;;;9.01;65.30;102973.56;7358993;19;20014;-59
2023/02/07 06:09:33;;;;;;;0.00;0.00;;;;;;;9.18;65.16;103004.31;7359161;19;20691;-57
2023/02/07 06:11:58;;;;;;;0.10;0.10;;;;;;;9.08;64.93;102979.78;7360095;19;20018;-58
2023/02/07 06:14:24;;;;;;;0.00;0.00;;;;;;;9.24;65.15;103004.44;7360554;19;20017;-59
2023/02/07 06:16:49;;;;;;;0.10;0.10;;;;;;;9.11;64.40;102979.84;7357860;19;20022;-59
2023/02/07 06:19:15;;;;;;;0.10;0.10;;;;;;;9.10;65.28;102973.75;7368883;19;20347;-59
2023/02/07 06:21:40;;;;;;;0.10;0.10;;;;;;;9.29;65.36;103008.88;7365761;19;20062;-59
2023/02/07 06:24:07;;;;;;;0.10;0.10;;;;;;;9.30;65.54;103008.03;7361094;19;20519;-57
2023/02/07 06:26:32;;;;;;;0.03;0.03;;;;;;;8.92;64.96;102936.91;7366071;19;20066;-57
2023/02/07 06:28:58;;;;;;;0.10;0.10;;;;;;;9.24;65.19;102988.78;7368433;19;20545;-59
2023/02/07 06:31:23;;;;;;;0.10;0.10;;;;;;;9.35;65.57;103011.59;7365879;19;20007;-58
2023/02/07 06:33:48;;;;;;;0.00;0.00;;;;;;;9.37;64.67;103009.03;7366825;19;20010;-59
2023/02/07 06:36:14;;;;;;;0.10;0.10;;;;;;;9.39;64.77;103011.69;7357516;19;20022;-59
2023/02/07 06:38:39;;;;;;;0.00;0.00;;;;;;;9.38;65.21;103010.81;7361071;19;20065;-59
2023/02/07 06:41:09;;;;;;;0.00;0.00;;;;;;;9.27;65.49;102988.84;7361404;19;22506;-58
2023/02/07 06:43:35;;;;;;;0.10;0.10;;;;;;;9.36;65.38;103012.47;7361273;19;20809;-59
2023/02/07 06:46:00;;;;;;;0.10;0.10;;;;;;;9.42;65.54;103009.09;7359691;19;22482;-59
2023/02/07 06:48:26;;;;;;;0.10;0.10;;;;;;;9.43;65.23;103011.78;7358731;19;20056;-60
2023/02/07 06:50:51;;;;;;;0.00;0.00;;;;;;;9.43;65.09;103010.88;7360791;19;20050;-59
2023/02/07 06:53:16;;;;;;;0.00;0.00;;;;;;;9.35;64.92;102995.09;7360975;19;20868;-59
2023/02/07 06:55:42;;;;;;;0.00;0.00;;;;;;;9.47;65.40;103010.06;7356394;19;20086;-59
2023/02/07 06:58:07;;;;;;;0.00;0.00;;;;;;;9.47;65.06;103004.88;7350837;19;20823;-59
2023/02/07 07:00:33;;;;;;;0.10;0.10;;;;;;;9.42;65.26;102996.94;7357952;19;20041;-58
2023/02/07 07:02:59;;;;;;;0.00;0.00;;;;;;;9.49;65.13;103009.28;7359808;19;20017;-59
2023/02/07 07:05:26;;;;;;;0.00;0.00;;;;;;;9.29;65.38;102985.41;7357093;19;20586;-59
2023/02/07 07:07:51;;;;;;;0.00;0.00;;;;;;;9.53;65.58;103021.53;7356199;19;20029;-59
2023/02/07 07:10:17;;;;;;;0.00;0.00;;;;;;;9.41;65.54;102997.81;7355825;19;20462;-59
2023/02/07 07:12:43;;;;;;;0.00;0.00;;;;;;;9.54;65.12;103022.41;7355649;19;20006;-59
2023/02/07 07:15:08;;;;;;;0.03;0.03;;;;;;;9.51;65.13;103015.38;7357229;19;20530;-60
2023/02/07 07:17:34;;;;;;;0.00;0.00;;;;;;;9.53;64.83;103013.69;7357508;19;20378;-60
2023/02/07 07:19:59;;;;;;;0.00;0.00;;;;;;;9.57;65.24;103018.09;7357485;19;20024;-59
2023/02/07 07:22:25;;;;;;;0.03;0.03;;;;;;;9.59;64.86;103010.31;7356913;19;20002;-59
2023/02/07 07:24:50;;;;;;;0.00;0.00;;;;;;;9.45;64.76;102983.97;7358971;19;20013;-59
2023/02/07 07:27:16;;;;;;;0.00;0.00;;;;;;;9.60;65.16;103012.94;7357996;19;20502;-59
2023/02/07 07:29:41;;;;;;;0.00;0.00;;;;;;;9.56;65.38;103003.31;7355313;19;20013;-59
2023/02/07 07:32:10;;;;;;;0.00;0.00;;;;;;;9.58;65.50;103017.28;7354965;19;20348;-59
2023/02/07 07:34:35;;;;;;;0.10;0.10;;;;;;;9.61;64.92;103019.91;7358221;19;20058;-59
2023/02/07 07:37:01;;;;;;;0.10;0.10;;;;;;;9.60;65.17;103023.38;7357333;19;20336;-59
2023/02/07 07:39:26;;;;;;;0.00;0.00;;;;;;;9.62;65.20;103026.00;7366849;19;20371;-60
2023/02/07 07:41:52;;;;;;;0.00;0.00;;;;;;;9.57;65.17;103012.88;7362826;19;20010;-59
2023/02/07 07:44:17;;;;;;;0.00;0.00;;;;;;;9.53;65.16;103011.09;7366145;19;20018;-59
2023/02/07 07:46:42;;;;;;;0.00;0.00;;;;;;;9.61;65.11;103025.13;7366585;19;20688;-59
2023/02/07 07:49:08;;;;;;;0.00;0.00;;;;;;;9.27;64.98;102960.16;7363078;19;20374;-59
2023/02/07 07:51:34;;;;;;;0.10;0.10;;;;;;;9.44;64.84;102984.84;7360874;19;20007;-58
2023/02/07 07:53:59;;;;;;;0.00;0.00;;;;;;;9.58;65.25;103022.50;7340249;19;20022;-59
2023/02/07 07:56:25;;;;;;;0.00;0.00;;;;;;;9.56;64.63;103029.38;7365125;19;20017;-59
2023/02/07 07:58:50;;;;;;;0.10;0.10;;;;;;;9.52;64.47;103029.31;7362718;19;20009;-59
2023/02/07 08:01:15;;;;;;;0.10;0.10;;;;;;;9.53;65.02;103037.19;7362665;19;20006;-58
2023/02/07 08:03:41;;;;;;;0.00;0.00;;;;;;;9.36;64.93;103012.47;7363004;19;20025;-58
2023/02/07 08:06:07;;;;;;;0.00;0.00;;;;;;;9.45;65.15;103041.34;7361872;19;20007;-59
2023/02/07 08:08:32;;;;;;;0.00;0.00;;;;;;;9.42;64.83;103038.66;7360895;19;20031;-59
2023/02/07 08:11:05;;;;;;;0.10;0.10;;;;;;;9.41;64.89;103041.25;7358400;19;20026;-57
2023/02/07 08:13:31;;;;;;;0.00;0.00;;;;;;;9.34;65.05;103048.09;7365602;19;20370;-58
2023/02/07 08:15:56;;;;;;;0.00;0.00;;;;;;;9.31;64.79;103050.63;7363871;19;20011;-58
2023/02/07 08:18:22;;;;;;;0.00;0.00;;;;;;;9.27;65.04;103048.81;7364276;19;20031;-59
2023/02/07 08:20:48;;;;;;;0.08;0.08;;;;;;;9.22;65.29;103045.22;7365227;19;20018;-58
2023/02/07 08:23:14;;;;;;;0.03;0.03;;;;;;;9.15;65.06;103045.94;7365585;19;20575;-59
2023/02/07 08:25:40;;;;;;;0.10;0.10;;;;;;;9.13;65.50;103056.34;7361760;19;20018;-59
2023/02/07 08:28:05;;;;;;;0.00;0.00;;;;;;;9.04;65.38;103046.59;7364730;19;20011;-59
2023/02/07 08:30:31;;;;;;;0.00;0.00;;;;;;;9.07;65.20;103059.72;7362952;19;20435;-58
2023/02/07 08:32:56;;;;;;;0.00;0.00;;;;;;;9.03;64.79;103059.63;7361159;19;20014;-58
2023/02/07 08:35:21;;;;;;;0.00;0.00;;;;;;;9.00;65.56;103065.63;7363696;19;20470;-57
2023/02/07 08:37:48;;;;;;;0.00;0.00;;;;;;;8.87;65.35;103036.66;7362602;19;20006;-59
2023/02/07 08:40:14;;;;;;;0.10;0.10;;;;;;;8.89;65.12;103051.50;7363261;19;20023;-59
2023/02/07 08:42:39;;;;;;;0.00;0.00;;;;;;;8.94;64.97;103067.22;7362637;19;20089;-59
2023/02/07 08:45:05;;;;;;;0.00;0.00;;;;;;;8.92;65.29;103077.63;7361208;19;21408;-58
2023/02/07 08:47:31;;;;;;;0.05;0.05;;;;;;;8.89;64.88;103072.34;7357555;19;20031;-59
2023/02/07 08:49:56;;;;;;;0.05;0.05;;;;;;;8.90;64.78;103079.31;7356669;19;20041;-59
2023/02/07 08:52:22;;;;;;;0.10;0.10;;;;;;;8.88;65.67;103070.59;7356395;19;20828;-58
2023/02/07 08:54:48;;;;;;;0.00;0.00;;;;;;;8.88;65.77;103081.00;7355385;19;20031;-59
2023/02/07 08:57:14;;;;;;;0.00;0.00;;;;;;;8.75;65.61;103058.13;7352107;19;20746;-59
2023/02/07 08:59:40;;;;;;;0.10;0.10;;;;;;;8.81;65.81;103068.66;7351224;19;20015;-58
2023/02/07 09:02:06;;;;;;;0.00;0.00;;;;;;;8.87;66.02;103079.25;7354274;19;20022;-59
2023/02/07 09:04:31;;;;;;;0.00;0.00;;;;;;;8.72;65.84;103055.47;7357076;19;20014;-59
2023/02/07 09:06:57;;;;;;;0.00;0.00;;;;;;;8.87;65.63;103089.69;7355694;19;20010;-59
2023/02/07 09:09:24;;;;;;;0.00;0.00;;;;;;;8.86;65.75;103082.69;7355266;19;20419;-59
2023/02/07 09:11:49;;;;;;;0.00;0.00;;;;;;;8.86;65.33;103081.81;7355729;19;20006;-59
2023/02/07 09:14:15;;;;;;;0.00;0.00;;;;;;;8.90;65.63;103088.84;7351951;19;20010;-59
2023/02/07 09:16:41;;;;;;;0.00;0.00;;;;;;;8.74;66.41;103056.38;7356686;19;20579;-59
2023/02/07 09:19:06;;;;;;;0.00;0.00;;;;;;;8.95;66.24;103095.91;7359405;19;20007;-59
2023/02/07 09:21:32;;;;;;;0.00;0.00;;;;;;;8.97;65.98;103091.66;7343041;19;20019;-58
2023/02/07 09:23:57;;;;;;;0.00;0.00;;;;;;;9.01;66.33;103101.25;7354252;19;20006;-59
2023/02/07 09:26:25;;;;;;;0.00;0.00;;;;;;;9.02;66.42;103094.31;7350905;19;20002;-59
2023/02/07 09:28:51;;;;;;;0.10;0.10;;;;;;;9.06;66.32;103097.03;7361566;19;20018;-59
2023/02/07 09:31:17;;;;;;;0.00;0.00;;;;;;;9.03;66.22;103086.56;7360567;19;20073;-58
2023/02/07 09:33:42;;;;;;;0.00;0.00;;;;;;;9.17;66.10;103096.38;7360547;19;20014;-59
2023/02/07 09:36:37;;;;;;;0.00;0.00;;;;;;;9.30;65.84;103106.25;7360920;19;20035;-59
2023/02/07 09:39:04;;;;;;;0.00;0.00;;;;;;;9.31;66.11;103110.59;7260188;19;2004626;-58
2023/02/07 09:42:03;;;;;;;0.00;0.00;;;;;;;9.41;65.84;103104.72;7358836;19;20003;-59
2023/02/07 09:44:46;;;;;;;0.10;0.10;;;;;;;9.53;65.61;103110.22;7258824;19;2004158;-59
2023/02/07 09:47:22;;;;;;;0.00;0.00;;;;;;;9.57;66.15;103101.56;7360731;19;20403;-59
2023/02/07 09:49:50;;;;;;;0.00;0.00;;;;;;;9.66;65.97;103110.44;7357585;19;20017;-59
2023/02/07 09:52:49;;;;;;;0.10;0.10;;;;;;;9.67;65.45;103092.19;7361358;19;20790;-59
2023/02/07 09:55:19;;;;;;;0.00;0.00;;;;;;;9.79;65.97;103117.66;7257067;19;2004358;-58
2023/02/07 09:57:49;;;;;;;0.10;0.10;;;;;;;9.87;65.75;103121.28;7361975;19;20015;-58
2023/02/07 10:00:23;;;;;;;0.00;0.00;;;;;;;9.92;65.92;103118.75;7362933;19;20010;-58
2023/02/07 10:02:57;;;;;;;0.00;0.00;;;;;;;10.00;65.47;103128.50;7363487;19;20014;-59
2023/02/07 10:05:48;;;;;;;0.10;0.10;;;;;;;10.05;65.63;103124.25;7361415;19;20078;-59
2023/02/07 10:08:16;;;;;;;0.10;0.10;;;;;;;10.09;65.34;103123.47;7258347;19;2004375;-58
2023/02/07 10:10:45;;;;;;;0.00;0.00;;;;;;;10.17;65.25;103125.31;7355800;19;20007;-57
2023/02/07 10:13:28;;;;;;;0.00;0.00;;;;;;;10.23;65.30;103114.97;7359798;19;20026;-59
2023/02/07 10:16:12;;;;;;;0.00;0.00;;;;;;;10.25;65.19;103113.31;7360162;19;20043;-58
2023/02/07 10:19:21;;;;;;;0.00;0.00;;;;;;;10.31;64.91;103113.41;7360343;19;20017;-59
2023/02/07 10:22:03;;;;;;;0.00;0.00;;;;;;;10.41;64.90;103123.16;7257228;19;2004100;-59
2023/02/07 10:25:01;;;;;;;0.00;0.00;;;;;;;10.43;65.02;103121.44;7359692;19;20905;-59
2023/02/07 10:27:35;;;;;;;0.00;0.00;;;;;;;10.49;64.80;103125.88;7259410;19;2004892;-59
2023/02/07 10:30:22;;;;;;;0.00;0.00;;;;;;;10.51;64.88;103132.91;7353536;19;20365;-57
2023/02/07 10:32:50;;;;;;;0.00;0.00;;;;;;;10.58;64.95;103133.88;7355802;19;20011;-58
2023/02/07 10:35:31;;;;;;;0.00;0.00;;;;;;;10.52;64.62;103113.75;7360538;19;20045;-59
2023/02/07 10:37:59;;;;;;;0.00;0.00;;;;;;;10.66;64.90;103137.50;7359275;19;20014;-59
2023/02/07 10:40:51;;;;;;;0.00;0.00;;;;;;;10.75;64.36;103131.56;7361210;19;20936;-58
2023/02/07 10:43:26;;;;;;;0.00;0.00;;;;;;;10.69;64.67;103114.03;7361562;19;20015;-59
2023/02/07 10:45:55;;;;;;;0.00;0.00;;;;;;;10.73;64.38;103112.34;7360648;19;20043;-58
2023/02/07 10:48:20;;;;;;;0.00;0.00;;;;;;;10.89;64.39;103122.16;7356496;19;20017;-59
2023/02/07 10:50:46;;;;;;;0.00;0.00;;;;;;;10.94;64.16;103128.34;7359526;19;20042;-59
2023/02/07 10:53:44;;;;;;;0.00;0.00;;;;;;;11.03;64.30;103117.16;7360059;19;20646;-59
2023/02/07 10:56:22;;;;;;;0.00;0.00;;;;;;;11.11;63.94;103126.00;7255613;19;2004379;-59
2023/02/07 10:58:48;;;;;;;0.00;0.00;;;;;;;11.16;63.88;103125.19;7360808;19;20018;-59
2023/02/07 11:01:22;;;;;;;0.00;0.00;;;;;;;11.26;63.83;103120.09;7360054;19;20011;-60
2023/02/07 11:03:49;;;;;;;0.08;0.08;;;;;;;11.29;63.86;103120.13;7360421;19;20014;-59
2023/02/07 11:06:22;;;;;;;0.00;0.00;;;;;;;11.36;64.04;103112.38;7361682;19;20014;-59
2023/02/07 11:08:48;;;;;;;0.00;0.00;;;;;;;11.43;64.07;103102.84;7360130;19;20459;-59
2023/02/07 11:11:29;;;;;;;0.00;0.00;;;;;;;11.56;63.69;103107.41;7360919;19;21418;-59
2023/02/07 11:14:01;;;;;;;0.10;0.10;;;;;;;11.50;63.73;103088.97;7361259;19;20137;-59
2023/02/07 11:16:27;;;;;;;0.00;0.00;;;;;;;11.65;63.52;103098.75;7361193;19;20034;-59
2023/02/07 11:19:03;;;;;;;0.00;0.00;;;;;;;11.80;63.25;103103.28;7357154;19;24340;-58
2023/02/07 11:21:40;;;;;;;0.00;0.00;;;;;;;11.92;63.40;103099.09;7355568;19;20025;-59
2023/02/07 11:24:24;;;;;;;0.00;0.00;;;;;;;11.99;63.37;103100.03;7355612;19;20014;-59
2023/02/07 11:26:52;;;;;;;0.03;0.03;;;;;;;12.05;63.02;103100.06;7357644;19;20017;-58
2023/02/07 11:29:20;;;;;;;0.00;0.00;;;;;;;12.09;62.90;103104.47;7354163;19;20809;-59
2023/02/07 11:31:46;;;;;;;;;;;;;;;12.27;63.43;103105.53;7352063;19;20576;-59
2023/02/07 11:34:27;;;;;;;0.00;0.00;;;;;;;12.31;62.44;103102.03;7346529;19;19964;-59
2023/02/07 11:36:53;;;;;;;0.00;0.00;;;;;;;12.31;61.80;103099.44;7343341;19;20348;-59
2023/02/07 11:39:21;;;;;;;0.03;0.03;;;;;;;12.29;62.12;103094.19;7352245;19;20098;-60
2023/02/07 11:42:00;;;;;;;0.08;0.08;;;;;;;12.42;62.15;103103.03;7358125;19;20013;-59
2023/02/07 11:44:28;;;;;;;0.00;0.00;;;;;;;12.40;61.70;103107.38;7354178;19;20582;-59